createdAt,value
2024-02-29T00:02:07.722Z,74.38
2024-02-29T00:05:51.565Z,73.95
2024-02-29T00:09:42.740Z,73.86
2024-02-29T00:13:22.476Z,74.31
2024-02-29T00:16:25.997Z,74.73
2024-02-29T00:19:12.107Z,74.52
2024-02-29T00:21:54.424Z,74.28
2024-02-29T00:24:37.133Z,73.89
2024-02-29T00:27:32.293Z,73.83
2024-02-29T00:30:11.012Z,74.01
2024-02-29T00:32:57.767Z,74.27
2024-02-29T00:35:29.197Z,74.59
2024-02-29T00:38:06.275Z,74.73
2024-02-29T00:40:36.427Z,74.62
2024-02-29T00:43:07.830Z,74.31
2024-02-29T00:46:37.782Z,74.26
2024-02-29T00:49:32.694Z,74.20
2024-02-29T00:52:47.258Z,74.41
2024-02-29T00:55:26.464Z,74.84
2024-02-29T00:58:42.920Z,74.69
2024-02-29T01:02:13.765Z,74.50
2024-02-29T01:05:23.664Z,74.82
2024-02-29T01:07:58.628Z,75.23
2024-02-29T01:10:40.722Z,75.14
2024-02-29T01:13:15.767Z,74.87
2024-02-29T01:16:08.520Z,74.92
2024-02-29T01:18:40.875Z,74.99
2024-02-29T01:21:08.592Z,74.74
2024-02-29T01:23:44.055Z,75.33
2024-02-29T01:26:39.917Z,75.20
2024-02-29T01:29:23.101Z,75.29
2024-02-29T01:32:18.527Z,75.42
2024-02-29T01:35:00.312Z,75.47
2024-02-29T01:37:35.932Z,75.66
2024-02-29T01:40:21.877Z,75.52
2024-02-29T01:42:53.001Z,75.36
2024-02-29T01:45:23.879Z,74.99
2024-02-29T01:47:57.061Z,74.96
2024-02-29T01:50:25.629Z,75.31
2024-02-29T01:53:06.533Z,75.12
2024-02-29T01:55:50.325Z,75.94
2024-02-29T01:58:29.455Z,77.23
2024-02-29T02:01:20.014Z,77.61
2024-02-29T02:04:02.998Z,78.25
2024-02-29T02:06:41.055Z,78.56
2024-02-29T02:09:14.827Z,78.28
2024-02-29T02:11:56.288Z,78.44
2024-02-29T02:14:34.901Z,77.77
2024-02-29T02:17:11.041Z,77.69
2024-02-29T02:19:51.741Z,77.73
2024-02-29T02:22:29.334Z,78.20
2024-02-29T02:25:04.056Z,78.62
2024-02-29T02:27:40.684Z,79.25
2024-02-29T02:30:15.610Z,79.12
2024-02-29T02:32:46.303Z,79.45
2024-02-29T02:35:37.276Z,79.92
2024-02-29T02:38:37.609Z,80.61
2024-02-29T02:41:13.906Z,80.34
2024-02-29T02:43:50.208Z,80.13
2024-02-29T02:46:39.368Z,80.38
2024-02-29T02:49:10.254Z,79.94
2024-02-29T02:51:51.817Z,80.61
2024-02-29T02:54:24.489Z,81.10
2024-02-29T02:57:13.697Z,80.94
2024-02-29T03:00:14.651Z,80.75
2024-02-29T03:02:45.499Z,81.32
2024-02-29T03:05:38.643Z,81.76
2024-02-29T03:13:12.686Z,82.40
2024-02-29T03:15:50.863Z,81.93
2024-02-29T03:18:23.859Z,82.06
2024-02-29T03:20:59.772Z,82.09
2024-02-29T03:23:30.746Z,81.96
2024-02-29T03:26:24.962Z,82.42
2024-02-29T03:29:01.240Z,81.93
2024-02-29T03:31:31.569Z,81.51
2024-02-29T03:33:59.983Z,81.49
2024-02-29T03:36:47.919Z,81.09
2024-02-29T03:39:17.998Z,80.67
2024-02-29T03:41:55.056Z,80.57
2024-02-29T03:44:30.194Z,80.50
2024-02-29T03:47:01.078Z,80.48
2024-02-29T03:49:31.211Z,80.21
2024-02-29T03:52:09.746Z,80.32
2024-02-29T03:54:49.868Z,80.48
2024-02-29T03:57:30.655Z,80.45
2024-02-29T04:00:01.897Z,80.63
2024-02-29T04:02:31.862Z,80.74
2024-02-29T04:05:12.353Z,81.14
2024-02-29T04:07:57.524Z,80.94
2024-02-29T04:10:30.986Z,81.06
2024-02-29T04:12:59.294Z,81.31
2024-02-29T04:15:36.264Z,81.43
2024-02-29T04:18:09.565Z,81.53
2024-02-29T04:20:42.972Z,81.32
2024-02-29T04:23:40.638Z,81.05
2024-02-29T04:26:08.588Z,80.97
2024-02-29T04:28:36.056Z,80.60
2024-02-29T04:31:05.864Z,80.60
2024-02-29T04:33:49.897Z,80.47
2024-02-29T04:36:30.872Z,80.16
2024-02-29T04:39:00.234Z,79.85
2024-02-29T04:41:46.028Z,79.79
2024-02-29T04:44:40.257Z,79.86
2024-02-29T04:47:19.493Z,80.15
2024-02-29T04:50:09.858Z,80.71
2024-02-29T04:52:40.178Z,80.75
2024-02-29T04:55:22.568Z,81.10
2024-02-29T04:57:52.500Z,80.67
2024-02-29T05:00:20.308Z,80.90
2024-02-29T05:03:13.536Z,80.82
2024-02-29T05:06:14.302Z,80.67
2024-02-29T05:09:10.517Z,79.87
2024-02-29T05:11:54.387Z,79.87
2024-02-29T05:14:34.497Z,80.83
2024-02-29T05:17:17.455Z,80.95
2024-02-29T05:20:34.114Z,81.24
2024-02-29T05:23:11.804Z,81.20
2024-02-29T05:26:10.902Z,81.53
2024-02-29T05:28:56.773Z,81.93
2024-02-29T05:31:27.619Z,82.54
2024-02-29T05:34:10.476Z,82.64
2024-02-29T05:36:49.416Z,82.49
2024-02-29T05:39:35.172Z,82.34
2024-02-29T05:42:25.096Z,82.73
2024-02-29T05:45:15.318Z,82.74
2024-02-29T05:48:08.118Z,82.75
2024-02-29T05:51:03.799Z,82.78
2024-02-29T05:53:52.098Z,82.96
2024-02-29T05:56:37.062Z,82.66
2024-02-29T05:59:33.191Z,82.94
2024-02-29T06:02:15.853Z,82.51
2024-02-29T06:08:32.525Z,82.90
2024-02-29T06:11:37.325Z,82.45
2024-02-29T06:14:18.383Z,82.41
2024-02-29T06:17:00.140Z,82.40
2024-02-29T06:19:39.804Z,82.48
2024-02-29T06:22:31.593Z,82.01
2024-02-29T06:25:16.670Z,81.94
2024-02-29T06:28:00.972Z,81.59
2024-02-29T06:30:53.972Z,81.54
2024-02-29T06:33:49.943Z,81.23
2024-02-29T06:36:30.846Z,80.94
2024-02-29T06:39:04.904Z,81.04
2024-02-29T06:41:37.134Z,81.08
2024-02-29T06:44:18.309Z,80.90
2024-02-29T06:47:23.081Z,80.67
2024-02-29T06:50:02.412Z,80.25
2024-02-29T06:52:33.484Z,79.91
2024-02-29T06:55:09.781Z,79.83
2024-02-29T06:57:52.234Z,79.95
2024-02-29T07:00:45.943Z,79.95
2024-02-29T07:03:30.334Z,79.41
2024-02-29T07:06:36.868Z,79.29
2024-02-29T07:09:23.273Z,79.40
2024-02-29T07:12:17.151Z,79.25
2024-02-29T07:15:14.959Z,79.01
2024-02-29T07:18:11.188Z,78.91
2024-02-29T07:20:55.809Z,78.79
2024-02-29T07:23:41.340Z,78.93
2024-02-29T07:26:32.803Z,78.53
2024-02-29T07:29:26.704Z,78.16
2024-02-29T07:32:34.750Z,77.96
2024-02-29T07:35:24.199Z,77.92
2024-02-29T07:38:30.030Z,77.62
2024-02-29T07:41:20.944Z,77.62
2024-02-29T07:44:32.385Z,77.97
2024-02-29T07:47:24.230Z,77.93
2024-02-29T07:50:04.025Z,77.89
2024-02-29T07:52:53.773Z,77.68
2024-02-29T07:55:21.710Z,77.73
2024-02-29T07:57:52.423Z,77.93
2024-02-29T08:00:26.338Z,78.00
2024-02-29T08:02:57.100Z,77.81
2024-02-29T08:05:43.228Z,77.41
2024-02-29T08:08:31.715Z,76.89
2024-02-29T08:11:17.587Z,76.12
2024-02-29T08:14:15.349Z,76.02
2024-02-29T08:16:58.033Z,74.99
2024-02-29T08:19:37.266Z,75.34
2024-02-29T08:22:21.916Z,76.01
2024-02-29T08:24:49.891Z,76.17
2024-02-29T08:27:25.036Z,76.00
2024-02-29T08:29:58.797Z,75.74
2024-02-29T08:32:38.592Z,76.09
2024-02-29T08:35:31.150Z,76.11
2024-02-29T08:38:13.716Z,76.13
2024-02-29T08:40:44.790Z,76.56
2024-02-29T08:43:16.077Z,76.56
2024-02-29T08:46:02.757Z,75.88
2024-02-29T08:48:42.405Z,76.06
2024-02-29T08:51:13.690Z,76.39
2024-02-29T08:54:07.752Z,76.24
2024-02-29T08:56:42.462Z,76.05
2024-02-29T08:59:22.761Z,76.01
2024-02-29T09:01:53.749Z,75.09
2024-02-29T09:04:39.652Z,74.26
2024-02-29T09:07:23.960Z,73.37
2024-02-29T09:10:11.899Z,73.40
2024-02-29T09:13:30.208Z,73.90
2024-02-29T09:16:19.207Z,73.63
2024-02-29T09:19:34.258Z,74.13
2024-02-29T09:22:18.966Z,73.80
2024-02-29T09:25:06.571Z,73.60
2024-02-29T09:27:51.145Z,73.80
2024-02-29T09:30:41.323Z,73.40
2024-02-29T09:33:26.558Z,73.31
2024-02-29T09:36:31.841Z,72.73
2024-02-29T09:39:16.545Z,71.84
2024-02-29T09:42:08.863Z,71.77
2024-02-29T09:45:00.457Z,71.83
2024-02-29T09:48:10.874Z,71.85
2024-02-29T09:50:55.550Z,70.74
2024-02-29T09:53:38.965Z,70.96
2024-02-29T09:56:22.339Z,72.14
2024-02-29T09:58:57.857Z,71.64
2024-02-29T10:02:16.136Z,69.70
2024-02-29T10:04:58.134Z,69.06
2024-02-29T10:08:05.918Z,69.98
2024-02-29T10:11:18.326Z,68.85
2024-02-29T10:13:56.272Z,68.53
2024-02-29T10:16:27.148Z,69.09
2024-02-29T10:19:15.076Z,69.71
2024-02-29T10:22:27.167Z,70.01
2024-02-29T10:25:21.952Z,70.67
2024-02-29T10:28:02.379Z,70.90
2024-02-29T10:30:42.344Z,71.26
2024-02-29T10:33:38.486Z,71.35
2024-02-29T10:36:26.709Z,71.46
2024-02-29T10:39:34.321Z,71.88
2024-02-29T10:42:51.204Z,71.76
2024-02-29T10:45:35.917Z,71.43
2024-02-29T10:49:21.814Z,71.25
2024-02-29T10:52:29.600Z,71.37
2024-02-29T10:55:09.887Z,71.49
2024-02-29T10:59:03.658Z,71.93
2024-02-29T11:01:59.419Z,72.46
2024-02-29T11:04:51.597Z,72.79
2024-02-29T11:07:33.211Z,72.31
2024-02-29T11:10:21.447Z,72.09
2024-02-29T11:13:17.747Z,71.84
2024-02-29T11:16:38.498Z,72.09
2024-02-29T11:19:32.996Z,72.30
2024-02-29T11:22:40.663Z,72.72
2024-02-29T11:25:42.313Z,72.50
2024-02-29T11:28:36.040Z,72.89
2024-02-29T11:31:52.889Z,72.74
2024-02-29T11:34:51.616Z,73.31
2024-02-29T11:37:53.239Z,73.50
2024-02-29T11:41:06.900Z,73.26
2024-02-29T11:44:34.364Z,72.81
2024-02-29T11:47:54.053Z,74.38
2024-02-29T11:57:35.275Z,74.00
2024-02-29T12:02:53.709Z,73.52
2024-02-29T12:10:36.269Z,73.18
2024-02-29T12:13:30.628Z,73.49
2024-02-29T12:17:08.226Z,73.08
2024-02-29T12:20:07.144Z,73.08
2024-02-29T12:23:44.477Z,72.99
2024-02-29T12:27:02.721Z,73.03
2024-02-29T12:30:55.317Z,73.26
2024-02-29T12:34:02.132Z,73.12
2024-02-29T12:37:50.452Z,73.12
2024-02-29T12:41:07.366Z,73.30
2024-02-29T12:44:02.170Z,73.23
2024-02-29T12:46:45.700Z,73.42
2024-02-29T12:50:12.371Z,73.35
2024-02-29T12:53:19.750Z,73.30
2024-02-29T12:56:22.241Z,72.78
2024-02-29T12:59:52.286Z,72.65
2024-02-29T13:02:55.331Z,72.87
2024-02-29T13:05:47.498Z,73.04
2024-02-29T13:08:51.291Z,73.16
2024-02-29T13:11:35.367Z,73.12
2024-02-29T13:14:06.082Z,73.30
2024-02-29T13:16:48.742Z,73.21
2024-02-29T13:19:16.947Z,73.27
2024-02-29T13:21:48.053Z,72.99
2024-02-29T13:24:41.293Z,73.13
2024-02-29T13:27:14.923Z,73.43
2024-02-29T13:29:55.029Z,73.36
2024-02-29T13:32:33.689Z,73.36
2024-02-29T13:35:14.514Z,73.84
2024-02-29T13:38:03.763Z,73.84
2024-02-29T13:40:59.389Z,74.07
2024-02-29T13:43:44.675Z,74.00
2024-02-29T13:46:26.698Z,74.23
2024-02-29T13:49:20.328Z,73.87
2024-02-29T13:52:20.766Z,73.62
2024-02-29T13:55:05.193Z,73.43
2024-02-29T13:58:01.141Z,73.51
2024-02-29T14:01:25.875Z,73.44
2024-02-29T14:04:22.591Z,73.64
2024-02-29T14:07:15.042Z,73.82
2024-02-29T14:09:49.036Z,74.32
2024-02-29T14:12:39.715Z,74.11
2024-02-29T14:15:30.182Z,74.30
2024-02-29T14:18:13.384Z,74.29
2024-02-29T14:21:29.385Z,74.14
2024-02-29T14:28:34.081Z,74.50
2024-02-29T14:31:33.365Z,74.21
2024-02-29T14:35:19.488Z,74.04
2024-02-29T14:37:46.159Z,74.52
2024-02-29T14:40:45.302Z,74.58
2024-02-29T14:43:20.189Z,74.76
2024-02-29T14:46:33.242Z,74.89
2024-02-29T14:49:29.597Z,75.12
2024-02-29T14:52:05.981Z,75.62
2024-02-29T14:54:45.395Z,75.69
2024-02-29T14:58:12.035Z,75.78
2024-02-29T15:01:09.426Z,75.55
2024-02-29T15:03:54.476Z,75.82
2024-02-29T15:06:25.508Z,75.98
2024-02-29T15:09:13.247Z,76.02
2024-02-29T15:11:55.367Z,75.88
2024-02-29T15:14:41.336Z,76.08
2024-02-29T15:17:37.465Z,75.38
2024-02-29T15:20:24.863Z,75.77
2024-02-29T15:22:58.485Z,76.32
2024-02-29T15:25:47.377Z,75.94
2024-02-29T15:29:03.796Z,76.08
2024-02-29T15:32:07.631Z,75.82
2024-02-29T15:34:47.415Z,75.40
2024-02-29T15:37:38.915Z,75.57
2024-02-29T15:40:14.403Z,75.74
2024-02-29T15:43:17.131Z,75.67
2024-02-29T15:45:53.519Z,75.74
2024-02-29T15:48:25.329Z,75.35
2024-02-29T15:51:02.366Z,75.34
2024-02-29T15:53:41.070Z,76.01
2024-02-29T15:56:15.153Z,75.83
2024-02-29T15:58:58.536Z,75.80
2024-02-29T16:01:43.564Z,76.03
2024-02-29T16:04:25.707Z,76.14
2024-02-29T16:06:59.871Z,76.27
2024-02-29T16:09:43.230Z,76.84
2024-02-29T16:12:21.744Z,77.23
2024-02-29T16:15:03.571Z,77.10
2024-02-29T16:18:20.854Z,77.83
2024-02-29T16:21:34.744Z,77.81
2024-02-29T16:24:55.636Z,77.67
2024-02-29T16:28:18.295Z,77.91
2024-02-29T16:32:27.002Z,77.80
2024-02-29T16:43:13.552Z,77.12
2024-02-29T16:55:41.705Z,77.99
2024-02-29T17:00:07.168Z,77.34
2024-02-29T17:03:30.947Z,77.94
2024-02-29T17:12:34.687Z,78.68
2024-02-29T17:15:55.261Z,78.90
2024-02-29T17:23:56.711Z,78.70
2024-02-29T17:27:46.957Z,79.56
2024-02-29T17:31:27.198Z,78.63
2024-02-29T17:35:05.128Z,78.10
2024-02-29T17:38:38.935Z,78.23
2024-02-29T17:43:01.067Z,78.63
2024-02-29T17:46:56.444Z,78.37
2024-02-29T17:50:49.634Z,78.46
2024-02-29T17:54:34.402Z,78.52
2024-02-29T17:58:05.737Z,78.39
2024-02-29T18:01:17.781Z,78.19
2024-02-29T18:04:05.371Z,77.77
2024-02-29T18:07:26.721Z,77.91
2024-02-29T18:11:02.612Z,78.48
2024-02-29T18:14:07.596Z,79.15
2024-02-29T18:17:09.482Z,79.42
2024-02-29T18:20:03.332Z,78.59
2024-02-29T18:23:17.558Z,78.19
2024-02-29T18:31:27.841Z,78.62
2024-02-29T18:38:59.172Z,79.00
2024-02-29T18:42:47.802Z,79.10
2024-02-29T18:46:13.460Z,79.13
2024-02-29T18:57:43.324Z,79.17
2024-02-29T19:01:16.635Z,79.12
2024-02-29T19:04:01.466Z,78.81
2024-02-29T19:07:07.943Z,78.74
2024-02-29T19:10:04.921Z,78.69
2024-02-29T19:13:39.009Z,78.77
2024-02-29T19:17:04.115Z,78.56
2024-02-29T19:20:16.803Z,78.31
2024-02-29T19:23:02.774Z,78.31
2024-02-29T19:26:15.842Z,78.18
2024-02-29T19:29:15.220Z,78.20
2024-02-29T19:32:20.559Z,78.54
2024-02-29T19:35:28.884Z,78.76
2024-02-29T19:38:46.777Z,78.61
2024-02-29T19:41:54.533Z,78.53
2024-02-29T19:44:58.472Z,78.57
2024-02-29T19:48:16.622Z,78.77
2024-02-29T19:51:26.969Z,78.59
2024-02-29T19:54:20.221Z,78.76
2024-02-29T19:57:31.840Z,79.14
2024-02-29T20:00:38.407Z,79.77
2024-02-29T20:03:22.081Z,80.03
2024-02-29T20:06:26.298Z,79.90
2024-02-29T20:09:54.052Z,79.99
2024-02-29T20:12:50.864Z,80.51
2024-02-29T20:15:39.258Z,80.73
2024-02-29T20:18:59.161Z,81.02
2024-02-29T20:22:12.634Z,80.87
2024-02-29T20:25:15.906Z,80.86
2024-02-29T20:28:38.237Z,80.57
2024-02-29T20:31:32.833Z,80.57
2024-02-29T20:34:20.822Z,80.85
2024-02-29T20:37:33.389Z,80.90
2024-02-29T20:40:15.293Z,80.94
2024-02-29T20:43:47.934Z,81.23
2024-02-29T20:47:39.074Z,81.15
2024-02-29T20:50:49.247Z,81.18
2024-02-29T20:54:08.279Z,81.12
2024-02-29T20:57:37.612Z,81.26
2024-02-29T21:00:30.586Z,81.71
2024-02-29T21:03:20.611Z,81.52
2024-02-29T21:07:00.316Z,81.50
2024-02-29T21:09:51.773Z,81.20
2024-02-29T21:12:56.734Z,80.98
2024-02-29T21:16:11.052Z,81.19
2024-02-29T21:19:00.621Z,81.12
2024-02-29T21:21:39.866Z,81.17
2024-02-29T21:24:26.013Z,81.06
2024-02-29T21:27:16.270Z,81.19
2024-02-29T21:30:11.915Z,81.01
2024-02-29T21:33:22.591Z,81.06
2024-02-29T21:36:31.918Z,81.37
2024-02-29T21:39:43.969Z,81.37
2024-02-29T21:42:48.825Z,81.48
2024-02-29T21:45:43.985Z,81.30
2024-02-29T21:48:56.305Z,81.40
2024-02-29T21:51:51.742Z,81.57
2024-02-29T21:55:07.207Z,81.50
2024-02-29T21:58:35.090Z,81.16
2024-02-29T22:06:26.016Z,80.89
2024-02-29T22:09:47.459Z,81.01
2024-02-29T22:13:35.774Z,80.98
2024-02-29T22:16:23.122Z,80.93
2024-02-29T22:19:27.238Z,80.92
2024-02-29T22:22:14.913Z,80.87
2024-02-29T22:25:10.841Z,80.66
2024-02-29T22:28:18.437Z,80.26
2024-02-29T22:31:58.661Z,80.08
2024-02-29T22:35:06.397Z,80.38
2024-02-29T22:38:12.062Z,79.98
2024-02-29T22:41:25.694Z,80.20
2024-02-29T22:44:33.391Z,80.21
2024-02-29T22:47:21.201Z,80.07
2024-02-29T22:49:57.390Z,80.03
2024-02-29T22:52:48.688Z,80.04
2024-02-29T22:55:47.673Z,79.84
2024-02-29T22:58:45.440Z,79.79
2024-02-29T23:01:49.791Z,79.56
2024-02-29T23:05:05.570Z,79.49
2024-02-29T23:08:04.861Z,79.64
2024-02-29T23:11:26.346Z,79.60
2024-02-29T23:14:21.921Z,79.47
2024-02-29T23:17:43.161Z,79.78
2024-02-29T23:20:40.758Z,79.32
2024-02-29T23:23:30.943Z,78.86
2024-02-29T23:26:56.846Z,79.10
2024-02-29T23:29:40.805Z,79.27
2024-02-29T23:33:12.034Z,79.10
2024-02-29T23:36:22.812Z,79.16
2024-02-29T23:39:29.829Z,79.46
2024-02-29T23:42:43.514Z,79.56
2024-02-29T23:46:16.154Z,79.67
2024-02-29T23:49:24.013Z,79.86
2024-02-29T23:52:27.387Z,80.15
2024-02-29T23:55:48.945Z,79.97
2024-02-29T23:58:42.003Z,79.49
